createdAt,value
2023-07-22T00:01:55.680Z,65.09
2023-07-22T00:04:22.293Z,65.26
2023-07-22T00:06:49.280Z,65.98
2023-07-22T00:09:15.918Z,66.77
2023-07-22T00:11:43.028Z,65.92
2023-07-22T00:14:10.172Z,66.65
2023-07-22T00:16:36.864Z,65.58
2023-07-22T00:19:03.513Z,65.35
2023-07-22T00:21:30.185Z,64.92
2023-07-22T00:23:56.761Z,65.09
2023-07-22T00:26:23.314Z,64.62
2023-07-22T00:28:49.752Z,65.19
2023-07-22T00:31:16.315Z,64.83
2023-07-22T00:33:42.912Z,65.86
2023-07-22T00:36:11.102Z,67.75
2023-07-22T00:38:37.675Z,66.50
2023-07-22T00:41:04.278Z,66.68
2023-07-22T00:43:30.836Z,67.41
2023-07-22T00:45:57.389Z,65.96
2023-07-22T00:48:24.332Z,68.16
2023-07-22T00:50:51.251Z,67.57
2023-07-22T00:53:17.933Z,68.95
2023-07-22T00:55:46.180Z,67.29
2023-07-22T00:58:12.708Z,67.63
2023-07-22T01:00:39.299Z,67.00
2023-07-22T01:03:06.119Z,67.20
2023-07-22T01:05:33.192Z,67.83
2023-07-22T01:07:59.945Z,69.00
2023-07-22T01:10:26.581Z,69.88
2023-07-22T01:12:53.201Z,70.09
2023-07-22T01:15:19.858Z,68.60
2023-07-22T01:17:46.886Z,68.37
2023-07-22T01:20:14.326Z,67.83
2023-07-22T01:22:44.065Z,69.02
2023-07-22T01:25:10.961Z,68.52
2023-07-22T01:27:37.513Z,69.80
2023-07-22T01:30:05.389Z,70.11
2023-07-22T01:32:32.015Z,69.85
2023-07-22T01:34:58.591Z,72.29
2023-07-22T01:39:50.490Z,72.89
2023-07-22T01:42:18.807Z,74.31
2023-07-22T01:44:45.600Z,73.46
2023-07-22T01:47:12.246Z,73.26
2023-07-22T01:49:38.829Z,71.96
2023-07-22T01:52:05.558Z,71.44
2023-07-22T01:54:32.201Z,70.93
2023-07-22T01:57:01.655Z,71.56
2023-07-22T01:59:28.574Z,73.19
2023-07-22T02:01:55.225Z,72.42
2023-07-22T02:04:22.232Z,72.56
2023-07-22T02:06:49.608Z,72.04
2023-07-22T02:09:16.151Z,71.26
2023-07-22T02:11:43.563Z,71.77
2023-07-22T02:14:10.264Z,71.15
2023-07-22T02:16:37.960Z,70.79
2023-07-22T02:19:05.419Z,70.79
2023-07-22T02:21:32.046Z,70.22
2023-07-22T02:23:58.478Z,70.07
2023-07-22T02:26:25.421Z,71.07
2023-07-22T02:28:53.448Z,70.74
2023-07-22T02:31:20.417Z,71.26
2023-07-22T02:33:47.004Z,70.76
2023-07-22T02:36:13.784Z,70.40
2023-07-22T02:38:40.770Z,71.25
2023-07-22T02:41:07.462Z,70.91
2023-07-22T02:43:36.854Z,70.75
2023-07-22T02:46:06.397Z,70.33
2023-07-22T02:48:39.585Z,70.70
2023-07-22T02:51:11.517Z,70.55
2023-07-22T02:53:39.984Z,71.22
2023-07-22T02:56:07.356Z,70.63
2023-07-22T02:58:34.621Z,71.32
2023-07-22T03:01:02.077Z,71.75
2023-07-22T03:03:29.940Z,70.94
2023-07-22T03:05:56.557Z,70.63
2023-07-22T03:08:23.124Z,72.86
2023-07-22T03:10:49.966Z,73.89
2023-07-22T03:13:16.955Z,74.54
2023-07-22T03:15:43.882Z,75.52
2023-07-22T03:18:12.129Z,76.86
2023-07-22T03:20:39.369Z,77.11
2023-07-22T03:23:07.019Z,77.66
2023-07-22T03:28:25.460Z,78.94
2023-07-22T03:30:52.114Z,78.45
2023-07-22T03:33:18.567Z,76.70
2023-07-22T03:35:45.315Z,75.14
2023-07-22T03:38:11.914Z,74.36
2023-07-22T03:40:38.412Z,74.62
2023-07-22T03:43:05.004Z,74.71
2023-07-22T03:45:31.588Z,74.78
2023-07-22T03:47:59.548Z,72.97
2023-07-22T03:50:26.724Z,76.04
2023-07-22T03:52:53.742Z,73.81
2023-07-22T03:55:20.548Z,73.66
2023-07-22T03:57:47.414Z,74.13
2023-07-22T04:00:14.145Z,73.95
2023-07-22T04:02:42.195Z,74.10
2023-07-22T04:05:09.487Z,72.66
2023-07-22T04:07:36.276Z,73.15
2023-07-22T04:10:03.607Z,74.52
2023-07-22T04:12:30.201Z,74.40
2023-07-22T04:14:57.434Z,75.47
2023-07-22T04:17:24.123Z,75.39
2023-07-22T04:19:52.665Z,76.12
2023-07-22T04:22:21.986Z,74.86
2023-07-22T04:24:49.144Z,74.81
2023-07-22T04:27:15.783Z,74.36
2023-07-22T04:29:42.232Z,74.49
2023-07-22T04:32:09.052Z,74.51
2023-07-22T04:34:35.636Z,74.40
2023-07-22T04:37:02.047Z,74.42
2023-07-22T04:39:30.119Z,74.17
2023-07-22T04:41:56.870Z,74.99
2023-07-22T04:44:23.470Z,75.36
2023-07-22T04:46:50.009Z,75.81
2023-07-22T04:49:16.528Z,75.45
2023-07-22T04:51:43.151Z,74.60
2023-07-22T04:54:09.812Z,73.26
2023-07-22T04:56:36.351Z,73.42
2023-07-22T04:59:02.851Z,74.12
2023-07-22T05:01:29.468Z,75.16
2023-07-22T05:03:56.336Z,74.15
2023-07-22T05:06:23.422Z,72.79
2023-07-22T05:08:50.373Z,73.39
2023-07-22T05:11:17.071Z,73.07
2023-07-22T05:13:43.656Z,72.85
2023-07-22T05:16:10.326Z,73.96
2023-07-22T05:18:37.144Z,74.22
2023-07-22T05:21:03.767Z,74.52
2023-07-22T05:23:30.352Z,74.32
2023-07-22T05:25:56.777Z,74.49
2023-07-22T05:28:24.945Z,73.95
2023-07-22T05:33:17.115Z,74.42
2023-07-22T05:35:44.547Z,73.39
2023-07-22T05:38:13.733Z,72.74
2023-07-22T05:40:40.328Z,72.45
2023-07-22T05:43:06.935Z,70.16
2023-07-22T05:45:34.967Z,69.98
2023-07-22T05:48:01.975Z,68.20
2023-07-22T05:50:28.625Z,66.19
2023-07-22T05:52:56.788Z,65.88
2023-07-22T05:55:23.376Z,65.61
2023-07-22T05:57:50.257Z,62.49
2023-07-22T06:00:17.782Z,62.77
2023-07-22T06:02:44.519Z,61.77
2023-07-22T06:05:11.148Z,60.55
2023-07-22T06:07:37.697Z,59.04
2023-07-22T06:10:04.566Z,56.16
2023-07-22T06:12:31.086Z,54.69
2023-07-22T06:14:57.660Z,54.11
2023-07-22T06:17:24.340Z,52.97
2023-07-22T06:19:51.760Z,52.98
2023-07-22T06:22:18.318Z,53.03
2023-07-22T06:24:44.889Z,52.90
2023-07-22T06:27:11.529Z,52.51
2023-07-22T06:29:38.120Z,50.49
2023-07-22T06:32:05.192Z,50.44
2023-07-22T06:34:32.076Z,50.00
2023-07-22T06:36:58.653Z,49.78
2023-07-22T06:39:25.206Z,50.73
2023-07-22T06:41:51.722Z,50.40
2023-07-22T06:44:18.255Z,48.43
2023-07-22T06:46:44.874Z,47.89
2023-07-22T06:49:12.893Z,47.42
2023-07-22T06:51:39.494Z,47.40
2023-07-22T06:54:07.177Z,47.20
2023-07-22T06:56:33.799Z,47.01
2023-07-22T06:59:00.860Z,46.43
2023-07-22T07:01:28.766Z,45.31
2023-07-22T07:03:55.678Z,44.65
2023-07-22T07:06:22.309Z,45.83
2023-07-22T07:08:48.988Z,44.71
2023-07-22T07:11:15.613Z,43.38
2023-07-22T07:13:42.643Z,42.92
2023-07-22T07:16:26.098Z,42.56
2023-07-22T07:18:53.723Z,40.83
2023-07-22T07:21:22.051Z,40.02
2023-07-22T07:23:49.619Z,40.28
2023-07-22T07:26:17.727Z,41.15
2023-07-22T07:28:45.903Z,40.47
2023-07-22T07:31:13.720Z,40.34
2023-07-22T07:33:40.499Z,38.48
2023-07-22T07:36:07.369Z,39.66
2023-07-22T07:38:33.998Z,40.48
2023-07-22T07:41:04.937Z,40.25
2023-07-22T07:43:31.588Z,39.77
2023-07-22T07:46:30.206Z,38.68
2023-07-22T07:49:02.263Z,38.37
2023-07-22T07:51:33.054Z,38.45
2023-07-22T07:54:00.440Z,37.75
2023-07-22T07:56:27.906Z,36.44
2023-07-22T07:58:56.355Z,36.06
2023-07-22T08:01:23.111Z,37.49
2023-07-22T08:03:49.924Z,37.12
2023-07-22T08:06:22.498Z,35.74
2023-07-22T08:08:52.268Z,36.49
2023-07-22T08:11:18.870Z,36.86
2023-07-22T08:13:45.556Z,35.87
2023-07-22T08:16:13.815Z,32.93
2023-07-22T08:18:41.891Z,33.24
2023-07-22T08:21:09.210Z,32.58
2023-07-22T08:23:38.958Z,32.25
2023-07-22T08:26:06.469Z,32.85
2023-07-22T08:28:33.680Z,32.58
2023-07-22T08:31:00.388Z,31.15
2023-07-22T08:33:39.752Z,31.43
2023-07-22T08:36:09.087Z,31.25
2023-07-22T08:38:36.362Z,31.31
2023-07-22T08:41:03.001Z,31.32
2023-07-22T08:43:30.667Z,31.03
2023-07-22T08:46:01.234Z,32.38
2023-07-22T08:48:30.441Z,32.22
2023-07-22T08:51:03.253Z,31.79
2023-07-22T08:53:30.710Z,31.87
2023-07-22T08:55:57.399Z,31.88
2023-07-22T08:58:25.248Z,31.31
2023-07-22T09:00:53.293Z,30.78
2023-07-22T09:03:20.368Z,31.70
2023-07-22T09:05:47.886Z,30.92
2023-07-22T09:08:14.610Z,29.48
2023-07-22T09:10:42.818Z,28.88
2023-07-22T09:13:09.749Z,28.63
2023-07-22T09:15:37.586Z,28.89
2023-07-22T09:18:05.599Z,28.60
2023-07-22T09:20:32.534Z,28.92
2023-07-22T09:23:12.695Z,28.79
2023-07-22T09:25:42.205Z,27.99
2023-07-22T09:28:08.981Z,28.21
2023-07-22T09:30:37.337Z,27.96
2023-07-22T09:33:06.999Z,26.87
2023-07-22T09:35:50.768Z,27.27
2023-07-22T09:38:26.829Z,26.38
2023-07-22T09:40:54.432Z,26.20
2023-07-22T09:43:22.408Z,26.12
2023-07-22T09:45:49.644Z,25.69
2023-07-22T09:48:16.757Z,25.80
2023-07-22T09:50:43.797Z,25.39
2023-07-22T09:53:16.411Z,25.32
2023-07-22T09:55:43.001Z,26.26
2023-07-22T09:58:10.308Z,24.27
2023-07-22T10:00:37.955Z,24.34
2023-07-22T10:03:10.393Z,26.19
2023-07-22T10:05:39.088Z,26.16
2023-07-22T10:08:07.672Z,25.21
2023-07-22T10:10:39.729Z,24.65
2023-07-22T10:13:06.563Z,23.82
2023-07-22T10:15:34.747Z,25.19
2023-07-22T10:18:02.599Z,24.42
2023-07-22T10:20:30.350Z,24.06
2023-07-22T10:22:57.476Z,23.55
2023-07-22T10:25:24.846Z,23.69
2023-07-22T10:27:53.499Z,25.21
2023-07-22T10:30:20.281Z,25.84
2023-07-22T10:32:49.714Z,26.38
2023-07-22T10:35:31.759Z,25.15
2023-07-22T10:38:15.441Z,25.13
2023-07-22T10:40:51.286Z,24.43
2023-07-22T10:43:19.190Z,24.84
2023-07-22T10:45:54.109Z,22.71
2023-07-22T10:48:22.836Z,22.69
2023-07-22T10:50:51.944Z,24.91
2023-07-22T10:53:25.124Z,24.82
2023-07-22T10:56:09.777Z,24.58
2023-07-22T10:58:45.450Z,22.97
2023-07-22T11:01:33.380Z,23.11
2023-07-22T11:04:21.332Z,22.83
2023-07-22T11:06:47.810Z,23.01
2023-07-22T11:09:32.207Z,23.13
2023-07-22T11:12:09.220Z,23.97
2023-07-22T11:17:04.171Z,22.60
2023-07-22T11:19:31.099Z,23.64
2023-07-22T11:21:57.814Z,23.58
2023-07-22T11:24:25.226Z,23.52
2023-07-22T11:26:53.973Z,22.94
2023-07-22T11:29:21.859Z,22.97
2023-07-22T11:31:50.826Z,22.67
2023-07-22T11:34:23.327Z,22.07
2023-07-22T11:36:51.472Z,23.20
2023-07-22T11:39:22.842Z,22.63
2023-07-22T11:41:50.160Z,22.50
2023-07-22T11:44:19.807Z,22.36
2023-07-22T11:46:49.371Z,22.13
2023-07-22T11:49:32.220Z,21.95
2023-07-22T11:52:06.078Z,21.67
2023-07-22T11:54:34.449Z,21.96
2023-07-22T11:57:30.624Z,22.38
2023-07-22T11:59:57.822Z,21.82
2023-07-22T12:02:26.467Z,21.01
2023-07-22T12:05:05.221Z,22.00
2023-07-22T12:07:36.716Z,22.50
2023-07-22T12:10:08.136Z,22.31
2023-07-22T12:12:35.960Z,22.14
2023-07-22T12:15:24.035Z,22.04
2023-07-22T12:18:01.531Z,21.03
2023-07-22T12:20:30.022Z,21.61
2023-07-22T12:22:58.470Z,21.76
2023-07-22T12:25:25.884Z,21.00
2023-07-22T12:27:52.633Z,21.01
2023-07-22T12:30:20.355Z,22.01
2023-07-22T12:32:47.850Z,21.25
2023-07-22T12:35:15.900Z,21.14
2023-07-22T12:37:42.824Z,21.83
2023-07-22T12:40:10.162Z,21.73
2023-07-22T12:42:37.345Z,21.70
2023-07-22T12:45:07.989Z,21.86
2023-07-22T12:47:34.648Z,22.01
2023-07-22T12:50:01.241Z,21.03
2023-07-22T12:52:27.834Z,22.34
2023-07-22T12:54:54.379Z,21.12
2023-07-22T12:57:22.513Z,21.36
2023-07-22T12:59:49.093Z,21.12
2023-07-22T13:02:17.006Z,22.27
2023-07-22T13:04:43.630Z,21.72
2023-07-22T13:07:10.117Z,21.78
2023-07-22T13:09:42.864Z,22.17
2023-07-22T13:12:09.874Z,21.58
2023-07-22T13:14:39.618Z,22.54
2023-07-22T13:17:06.644Z,22.53
2023-07-22T13:19:34.334Z,22.37
2023-07-22T13:22:00.893Z,22.60
2023-07-22T13:24:27.515Z,22.90
2023-07-22T13:26:54.136Z,22.73
2023-07-22T13:29:20.679Z,22.15
2023-07-22T13:31:47.268Z,22.34
2023-07-22T13:34:13.856Z,22.43
2023-07-22T13:36:41.233Z,23.77
2023-07-22T13:39:07.805Z,23.96
2023-07-22T13:41:34.440Z,24.36
2023-07-22T13:44:00.983Z,24.54
2023-07-22T13:46:27.565Z,24.25
2023-07-22T13:48:54.096Z,24.31
2023-07-22T13:51:20.932Z,25.08
2023-07-22T13:53:47.491Z,24.57
2023-07-22T13:56:14.209Z,24.87
2023-07-22T13:58:40.829Z,24.63
2023-07-22T14:01:07.457Z,24.91
2023-07-22T14:03:34.111Z,24.87
2023-07-22T14:06:02.052Z,25.82
2023-07-22T14:11:09.478Z,25.49
2023-07-22T14:13:36.063Z,26.37
2023-07-22T14:16:16.953Z,26.92
2023-07-22T14:18:48.259Z,27.59
2023-07-22T14:21:14.958Z,27.71
2023-07-22T14:23:41.816Z,27.92
2023-07-22T14:26:08.403Z,27.96
2023-07-22T14:28:35.024Z,28.36
2023-07-22T14:31:01.548Z,28.09
2023-07-22T14:33:28.085Z,27.63
2023-07-22T14:35:54.680Z,28.14
2023-07-22T14:38:21.263Z,29.24
2023-07-22T14:40:47.980Z,29.54
2023-07-22T14:43:14.727Z,30.44
2023-07-22T14:45:41.568Z,31.20
2023-07-22T14:48:08.258Z,32.38
2023-07-22T14:50:34.846Z,32.94
2023-07-22T14:53:01.446Z,32.97
2023-07-22T14:55:28.041Z,32.29
2023-07-22T14:57:54.644Z,33.83
2023-07-22T15:00:21.180Z,34.35
2023-07-22T15:02:49.002Z,34.16
2023-07-22T15:05:15.624Z,34.35
2023-07-22T15:07:42.251Z,34.73
2023-07-22T15:10:08.965Z,34.91
2023-07-22T15:12:35.583Z,34.41
2023-07-22T15:15:02.202Z,34.83
2023-07-22T15:17:28.753Z,36.76
2023-07-22T15:19:56.584Z,36.66
2023-07-22T15:22:23.168Z,38.57
2023-07-22T15:24:49.794Z,38.68
2023-07-22T15:27:16.829Z,38.74
2023-07-22T15:29:43.409Z,38.86
2023-07-22T15:32:10.008Z,38.88
2023-07-22T15:34:37.925Z,39.83
2023-07-22T15:37:04.650Z,39.57
2023-07-22T15:39:31.152Z,40.63
2023-07-22T15:41:57.789Z,40.72
2023-07-22T15:44:24.369Z,40.72
2023-07-22T15:46:50.930Z,40.92
2023-07-22T15:49:17.526Z,41.09
2023-07-22T15:51:44.050Z,41.98
2023-07-22T15:54:10.785Z,43.50
2023-07-22T15:56:37.306Z,44.57
2023-07-22T15:59:04.102Z,44.13
2023-07-22T16:01:31.056Z,45.15
2023-07-22T16:03:58.027Z,45.60
2023-07-22T16:06:32.727Z,47.70
2023-07-22T16:09:00.245Z,48.08
2023-07-22T16:11:27.177Z,47.18
2023-07-22T16:13:54.063Z,46.71
2023-07-22T16:16:21.969Z,46.88
2023-07-22T16:18:48.629Z,46.81
2023-07-22T16:21:15.225Z,46.88
2023-07-22T16:23:41.784Z,47.41
2023-07-22T16:26:08.455Z,47.41
2023-07-22T16:28:35.043Z,47.47
2023-07-22T16:31:01.608Z,47.81
2023-07-22T16:33:28.175Z,47.41
2023-07-22T16:35:55.140Z,47.49
2023-07-22T16:38:21.740Z,46.47
2023-07-22T16:40:48.312Z,46.52
2023-07-22T16:43:14.931Z,46.43
2023-07-22T16:45:41.502Z,46.88
2023-07-22T16:48:08.732Z,47.19
2023-07-22T16:50:35.261Z,48.50
2023-07-22T16:53:01.888Z,48.10
2023-07-22T16:55:30.306Z,47.48
2023-07-22T16:57:56.930Z,47.83
2023-07-22T17:00:23.550Z,47.72
2023-07-22T17:02:50.368Z,48.69
2023-07-22T17:05:17.095Z,49.12
2023-07-22T17:07:43.650Z,49.79
2023-07-22T17:10:10.388Z,50.08
2023-07-22T17:12:38.028Z,49.79
2023-07-22T17:15:05.705Z,50.84
2023-07-22T17:17:32.284Z,50.73
2023-07-22T17:19:58.946Z,50.94
2023-07-22T17:22:25.451Z,51.03
2023-07-22T17:24:52.103Z,51.04
2023-07-22T17:27:18.662Z,50.38
2023-07-22T17:29:45.220Z,50.97
2023-07-22T17:32:11.768Z,50.65
2023-07-22T17:37:03.665Z,50.04
2023-07-22T17:39:30.955Z,50.34
2023-07-22T17:41:57.509Z,51.54
2023-07-22T17:44:24.056Z,51.22
2023-07-22T17:46:50.612Z,51.96
2023-07-22T17:49:17.222Z,52.12
2023-07-22T17:51:44.116Z,52.49
2023-07-22T17:54:10.691Z,52.22
2023-07-22T17:56:37.329Z,52.68
2023-07-22T17:59:04.406Z,53.40
2023-07-22T18:01:31.239Z,52.82
2023-07-22T18:03:58.235Z,52.21
2023-07-22T18:06:24.878Z,52.79
2023-07-22T18:08:53.310Z,53.74
2023-07-22T18:11:21.063Z,54.77
2023-07-22T18:13:47.694Z,54.78
2023-07-22T18:16:14.249Z,55.72
2023-07-22T18:18:41.025Z,55.85
2023-07-22T18:21:08.709Z,56.06
2023-07-22T18:23:35.588Z,55.02
2023-07-22T18:26:02.182Z,54.89
2023-07-22T18:28:30.923Z,55.89
2023-07-22T18:30:57.959Z,55.43
2023-07-22T18:33:24.526Z,54.67
2023-07-22T18:35:51.786Z,54.48
2023-07-22T18:38:19.652Z,56.02
2023-07-22T18:40:49.441Z,54.47
2023-07-22T18:43:16.037Z,54.52
2023-07-22T18:45:42.699Z,55.52
2023-07-22T18:48:09.258Z,55.10
2023-07-22T18:50:36.023Z,56.50
2023-07-22T18:53:04.214Z,57.23
2023-07-22T18:55:30.893Z,58.60
2023-07-22T18:57:57.497Z,59.41
2023-07-22T19:00:24.087Z,59.06
2023-07-22T19:02:51.857Z,57.65
2023-07-22T19:05:19.668Z,57.81
2023-07-22T19:07:46.180Z,57.91
2023-07-22T19:10:12.759Z,59.29
2023-07-22T19:12:39.290Z,60.85
2023-07-22T19:15:06.614Z,60.95
2023-07-22T19:17:33.197Z,61.79
2023-07-22T19:19:59.883Z,62.88
2023-07-22T19:22:26.517Z,64.53
2023-07-22T19:24:53.138Z,64.38
2023-07-22T19:27:19.761Z,65.81
2023-07-22T19:29:47.064Z,64.62
2023-07-22T19:32:13.933Z,63.61
2023-07-22T19:34:40.584Z,63.41
2023-07-22T19:37:08.363Z,63.52
2023-07-22T19:39:34.916Z,63.29
2023-07-22T19:42:01.633Z,69.71
2023-07-22T19:44:28.208Z,71.93
2023-07-22T19:46:55.736Z,74.27
2023-07-22T19:49:22.639Z,78.00
2023-07-22T19:51:50.044Z,81.77
2023-07-22T19:54:18.138Z,83.77
2023-07-22T19:56:46.151Z,83.34
2023-07-22T19:59:13.882Z,83.94
2023-07-22T20:01:40.952Z,84.08
2023-07-22T20:04:09.981Z,84.81
2023-07-22T20:09:02.108Z,84.47
2023-07-22T20:11:28.730Z,85.62
2023-07-22T20:13:55.990Z,82.95
2023-07-22T20:16:22.735Z,81.12
2023-07-22T20:18:49.837Z,79.66
2023-07-22T20:21:17.860Z,81.57
2023-07-22T20:23:44.417Z,85.27
2023-07-22T20:26:10.904Z,85.11
2023-07-22T20:28:37.482Z,84.52
2023-07-22T20:31:04.137Z,82.98
2023-07-22T20:33:30.723Z,82.23
2023-07-22T20:35:57.444Z,81.49
2023-07-22T20:38:24.317Z,79.31
2023-07-22T20:40:50.843Z,79.29
2023-07-22T20:43:17.795Z,79.37
2023-07-22T20:45:44.408Z,79.07
2023-07-22T20:48:10.946Z,77.84
2023-07-22T20:50:37.500Z,78.57
2023-07-22T20:53:04.583Z,78.20
2023-07-22T20:55:31.201Z,78.62
2023-07-22T20:57:57.819Z,78.41
2023-07-22T21:00:24.941Z,77.20
2023-07-22T21:02:51.622Z,77.95
2023-07-22T21:29:23.866Z,77.61
2023-07-22T21:31:50.932Z,77.28
2023-07-22T21:34:17.485Z,77.06
2023-07-22T21:36:43.989Z,77.68
2023-07-22T21:39:10.571Z,77.27
2023-07-22T21:41:37.028Z,76.78
2023-07-22T21:44:03.538Z,76.76
2023-07-22T21:46:30.103Z,76.98
2023-07-22T21:48:56.576Z,77.10
2023-07-22T21:51:23.617Z,77.16
2023-07-22T21:53:51.244Z,77.16
2023-07-22T21:56:17.821Z,80.88
2023-07-22T21:58:45.946Z,79.04
2023-07-22T22:01:12.618Z,79.53
2023-07-22T22:03:39.762Z,80.11
2023-07-22T22:06:06.406Z,79.78
2023-07-22T22:08:33.018Z,80.76
2023-07-22T22:11:04.720Z,83.97
2023-07-22T22:13:31.744Z,85.63
2023-07-22T22:15:58.238Z,89.28
2023-07-22T22:18:24.876Z,91.67
2023-07-22T22:20:51.291Z,91.08
2023-07-22T22:23:17.859Z,91.14
2023-07-22T22:25:44.806Z,89.89
2023-07-22T22:28:11.818Z,88.16
2023-07-22T22:30:38.494Z,86.57
2023-07-22T22:33:04.942Z,84.80
2023-07-22T22:35:31.558Z,83.83
2023-07-22T22:37:58.167Z,84.62
2023-07-22T22:40:24.823Z,83.60
2023-07-22T22:42:51.288Z,84.24
2023-07-22T22:45:17.982Z,84.62
2023-07-22T22:47:46.115Z,85.51
2023-07-22T22:50:12.630Z,81.60
2023-07-22T22:52:39.220Z,82.99
2023-07-22T22:55:07.552Z,88.94
2023-07-22T22:57:37.175Z,91.77
2023-07-22T23:00:04.120Z,92.42
2023-07-22T23:02:31.012Z,92.69
2023-07-22T23:04:58.873Z,92.21
2023-07-22T23:07:25.442Z,91.79
2023-07-22T23:09:52.105Z,90.64
2023-07-22T23:12:19.053Z,90.51
2023-07-22T23:14:45.600Z,89.92
2023-07-22T23:17:12.145Z,89.66
2023-07-22T23:22:04.300Z,89.93
2023-07-22T23:24:31.143Z,89.34
2023-07-22T23:26:58.063Z,89.69
2023-07-22T23:29:24.571Z,89.02
2023-07-22T23:31:51.858Z,88.74
2023-07-22T23:34:18.756Z,88.69
2023-07-22T23:36:45.631Z,88.89
2023-07-22T23:39:12.143Z,89.00
2023-07-22T23:41:38.982Z,89.11
2023-07-22T23:44:05.502Z,89.54
2023-07-22T23:46:32.403Z,89.30
2023-07-22T23:49:00.618Z,89.97
2023-07-22T23:51:27.386Z,91.83
2023-07-22T23:53:54.092Z,91.72
2023-07-22T23:56:20.802Z,93.25
2023-07-22T23:58:47.471Z,92.49
